createdAt,value
2019-02-17T00:00:13.446Z,48.30
2019-02-17T00:02:43.033Z,51.56
2019-02-17T00:05:11.660Z,48.83
2019-02-17T00:07:40.679Z,48.75
2019-02-17T00:10:09.395Z,58.42
2019-02-17T00:12:38.053Z,47.95
2019-02-17T00:15:08.752Z,50.88
2019-02-17T00:17:37.618Z,47.08
2019-02-17T00:20:08.131Z,54.48
2019-02-17T00:22:36.786Z,50.28
2019-02-17T00:25:06.867Z,51.00
2019-02-17T00:27:35.488Z,45.03
2019-02-17T00:30:06.189Z,53.83
2019-02-17T00:32:34.872Z,43.92
2019-02-17T00:35:03.494Z,46.30
2019-02-17T00:37:32.179Z,50.78
2019-02-17T00:40:00.793Z,39.88
2019-02-17T00:42:29.409Z,43.25
2019-02-17T00:44:57.992Z,45.57
2019-02-17T00:47:26.575Z,39.90
2019-02-17T00:49:55.153Z,43.73
2019-02-17T00:52:24.024Z,47.93
2019-02-17T00:54:52.658Z,44.75
2019-02-17T00:57:21.284Z,46.85
2019-02-17T00:59:50.110Z,43.48
2019-02-17T01:02:18.896Z,43.63
2019-02-17T01:04:47.469Z,47.80
2019-02-17T01:07:16.256Z,46.57
2019-02-17T01:09:44.919Z,36.95
2019-02-17T01:12:13.529Z,41.95
2019-02-17T01:14:42.934Z,45.05
2019-02-17T01:17:11.743Z,43.45
2019-02-17T01:19:40.382Z,41.53
2019-02-17T01:22:09.035Z,41.20
2019-02-17T01:24:37.823Z,35.65
2019-02-17T01:27:06.434Z,40.03
2019-02-17T01:29:35.271Z,35.15
2019-02-17T01:32:03.931Z,47.45
2019-02-17T01:34:32.522Z,39.10
2019-02-17T01:37:01.365Z,34.05
2019-02-17T01:39:29.972Z,36.63
2019-02-17T01:41:58.636Z,35.85
2019-02-17T01:44:27.168Z,36.65
2019-02-17T01:46:55.856Z,37.75
2019-02-17T01:49:24.681Z,35.85
2019-02-17T01:51:53.291Z,34.75
2019-02-17T01:54:21.928Z,36.50
2019-02-17T01:56:50.562Z,35.63
2019-02-17T01:59:19.217Z,35.17
2019-02-17T02:01:47.868Z,34.20
2019-02-17T02:04:16.691Z,38.73
2019-02-17T02:06:45.483Z,36.83
2019-02-17T02:09:14.169Z,37.73
2019-02-17T02:11:42.891Z,31.50
2019-02-17T02:14:11.497Z,39.67
2019-02-17T02:16:40.169Z,31.00
2019-02-17T02:19:08.777Z,33.13
2019-02-17T02:21:37.386Z,33.15
2019-02-17T02:24:05.956Z,32.03
2019-02-17T02:26:34.538Z,33.78
2019-02-17T02:29:03.193Z,36.65
2019-02-17T02:31:31.857Z,35.50
2019-02-17T02:34:00.680Z,34.53
2019-02-17T02:36:29.405Z,32.10
2019-02-17T02:38:58.326Z,35.68
2019-02-17T02:41:34.143Z,34.63
2019-02-17T02:43:57.322Z,27.52
2019-02-17T02:46:25.984Z,31.07
2019-02-17T02:48:54.595Z,29.73
2019-02-17T02:51:23.213Z,34.50
2019-02-17T02:53:52.424Z,33.70
2019-02-17T02:56:21.242Z,32.40
2019-02-17T02:58:49.772Z,33.33
2019-02-17T03:01:18.313Z,32.35
2019-02-17T03:03:47.042Z,33.17
2019-02-17T03:06:33.391Z,35.33
2019-02-17T03:09:02.241Z,33.73
2019-02-17T03:11:31.056Z,36.42
2019-02-17T03:13:59.687Z,29.35
2019-02-17T03:16:28.322Z,29.57
2019-02-17T03:18:56.855Z,31.97
2019-02-17T03:21:25.544Z,34.25
2019-02-17T03:23:54.292Z,31.90
2019-02-17T03:26:22.938Z,32.88
2019-02-17T03:28:51.412Z,35.10
2019-02-17T03:31:20.150Z,30.80
2019-02-17T03:33:48.691Z,32.78
2019-02-17T03:36:17.346Z,31.50
2019-02-17T03:38:45.995Z,31.20
2019-02-17T03:41:14.695Z,30.10
2019-02-17T03:43:43.305Z,39.35
2019-02-17T03:46:11.951Z,30.57
2019-02-17T03:48:40.816Z,34.92
2019-02-17T03:51:09.504Z,30.57
2019-02-17T03:53:38.244Z,29.32
2019-02-17T03:56:06.902Z,29.45
2019-02-17T03:58:35.536Z,31.52
2019-02-17T04:01:04.139Z,34.03
2019-02-17T04:03:32.853Z,31.30
2019-02-17T04:06:01.469Z,32.88
2019-02-17T04:08:30.097Z,29.20
2019-02-17T04:10:58.781Z,32.70
2019-02-17T04:13:27.504Z,32.08
2019-02-17T04:15:56.117Z,32.53
2019-02-17T04:18:24.815Z,34.45
2019-02-17T04:20:53.451Z,28.13
2019-02-17T04:23:30.973Z,31.33
2019-02-17T04:25:54.060Z,32.28
2019-02-17T04:28:22.699Z,29.67
2019-02-17T04:30:51.313Z,30.83
2019-02-17T04:33:19.952Z,29.52
2019-02-17T04:35:48.572Z,31.87
2019-02-17T04:38:17.182Z,33.02
2019-02-17T04:40:46.110Z,31.75
2019-02-17T04:43:14.763Z,34.08
2019-02-17T04:45:43.480Z,31.10
2019-02-17T04:48:12.118Z,31.07
2019-02-17T04:50:40.778Z,31.82
2019-02-17T04:53:09.639Z,31.23
2019-02-17T04:55:38.222Z,32.28
2019-02-17T04:58:06.842Z,29.70
2019-02-17T05:00:40.379Z,32.50
2019-02-17T05:03:05.818Z,32.63
2019-02-17T05:05:34.463Z,31.50
2019-02-17T05:08:03.678Z,31.13
2019-02-17T05:10:32.336Z,34.83
2019-02-17T05:13:00.932Z,33.87
2019-02-17T05:15:29.630Z,33.55
2019-02-17T05:17:58.244Z,34.78
2019-02-17T05:20:27.052Z,33.45
2019-02-17T05:22:55.661Z,37.50
2019-02-17T05:25:24.270Z,32.58
2019-02-17T05:27:52.871Z,35.03
2019-02-17T05:30:21.503Z,32.40
2019-02-17T05:32:50.045Z,36.93
2019-02-17T05:35:18.783Z,33.10
2019-02-17T05:37:47.397Z,28.02
2019-02-17T05:40:16.145Z,33.43
2019-02-17T05:42:44.817Z,33.63
2019-02-17T05:45:13.431Z,34.73
2019-02-17T05:47:42.041Z,35.40
2019-02-17T05:50:10.847Z,33.18
2019-02-17T05:52:39.500Z,30.52
2019-02-17T05:55:08.318Z,31.40
2019-02-17T05:57:36.903Z,30.83
2019-02-17T06:00:08.386Z,33.18
2019-02-17T06:02:37.042Z,30.30
2019-02-17T06:05:06.986Z,35.68
2019-02-17T06:07:35.600Z,32.25
2019-02-17T06:10:06.106Z,31.30
2019-02-17T06:12:34.858Z,33.05
2019-02-17T06:15:03.541Z,33.00
2019-02-17T06:17:32.072Z,37.33
2019-02-17T06:20:00.984Z,33.63
2019-02-17T06:22:29.672Z,34.63
2019-02-17T06:24:58.317Z,33.45
2019-02-17T06:27:26.930Z,36.65
2019-02-17T06:29:55.588Z,35.50
2019-02-17T06:32:24.200Z,37.53
2019-02-17T06:34:52.795Z,30.13
2019-02-17T06:37:21.408Z,31.97
2019-02-17T06:39:50.123Z,33.95
2019-02-17T06:42:18.781Z,34.08
2019-02-17T06:44:47.390Z,37.35
2019-02-17T06:47:17.944Z,34.33
2019-02-17T06:49:46.580Z,35.05
2019-02-17T06:52:15.190Z,35.23
2019-02-17T06:54:45.788Z,37.25
2019-02-17T06:57:19.119Z,30.70
2019-02-17T06:59:47.696Z,36.53
2019-02-17T07:02:16.313Z,35.78
2019-02-17T07:05:04.657Z,35.85
2019-02-17T07:07:33.347Z,38.98
2019-02-17T07:10:02.244Z,35.30
2019-02-17T07:12:31.016Z,39.50
2019-02-17T07:14:59.722Z,36.57
2019-02-17T07:17:28.361Z,40.03
2019-02-17T07:19:57.099Z,33.65
2019-02-17T07:22:25.836Z,36.10
2019-02-17T07:24:54.677Z,35.68
2019-02-17T07:27:23.340Z,42.40
2019-02-17T07:29:51.963Z,43.60
2019-02-17T07:32:20.547Z,35.70
2019-02-17T07:34:49.230Z,35.67
2019-02-17T07:37:19.438Z,37.93
2019-02-17T07:39:48.079Z,31.70
2019-02-17T07:42:16.688Z,34.90
2019-02-17T07:44:45.320Z,32.05
2019-02-17T07:47:14.032Z,35.13
2019-02-17T07:49:42.680Z,33.33
2019-02-17T07:52:11.284Z,35.90
2019-02-17T07:54:40.016Z,33.75
2019-02-17T07:57:08.673Z,31.75
2019-02-17T07:59:37.288Z,40.83
2019-02-17T08:02:06.002Z,100.02
2019-02-17T08:04:34.540Z,73.12
2019-02-17T08:07:03.248Z,53.70
2019-02-17T08:09:31.895Z,54.98
2019-02-17T08:12:00.545Z,43.33
2019-02-17T08:14:29.163Z,39.88
2019-02-17T08:16:57.810Z,38.33
2019-02-17T08:19:26.565Z,34.40
2019-02-17T08:21:55.520Z,30.30
2019-02-17T08:24:24.176Z,35.00
2019-02-17T08:26:53.020Z,29.65
2019-02-17T08:29:22.126Z,32.38
2019-02-17T08:31:55.901Z,29.33
2019-02-17T08:34:21.069Z,30.17
2019-02-17T08:36:49.622Z,31.68
2019-02-17T08:39:18.300Z,30.93
2019-02-17T08:41:47.036Z,30.85
2019-02-17T08:44:15.676Z,31.90
2019-02-17T08:46:45.214Z,30.37
2019-02-17T08:49:14.230Z,33.08
2019-02-17T08:51:42.892Z,29.25
2019-02-17T08:54:11.824Z,34.33
2019-02-17T08:56:40.473Z,29.32
2019-02-17T08:59:09.243Z,36.90
2019-02-17T09:01:37.869Z,30.95
2019-02-17T09:04:06.664Z,35.83
2019-02-17T09:06:36.005Z,31.87
2019-02-17T09:09:05.705Z,34.83
2019-02-17T09:11:34.735Z,32.00
2019-02-17T09:14:03.545Z,31.68
2019-02-17T09:16:32.204Z,34.25
2019-02-17T09:19:00.820Z,32.33
2019-02-17T09:21:29.587Z,30.10
2019-02-17T09:23:58.599Z,31.90
2019-02-17T09:26:29.631Z,32.30
2019-02-17T09:28:57.859Z,31.20
2019-02-17T09:31:26.540Z,30.90
2019-02-17T09:33:55.580Z,30.05
2019-02-17T09:36:24.424Z,33.25
2019-02-17T09:38:53.152Z,33.23
2019-02-17T09:41:21.749Z,29.87
2019-02-17T09:43:50.593Z,33.98
2019-02-17T09:46:19.207Z,32.55
2019-02-17T09:48:47.840Z,35.38
2019-02-17T09:51:16.476Z,32.08
2019-02-17T09:53:45.125Z,33.43
2019-02-17T09:56:13.849Z,30.15
2019-02-17T09:58:42.487Z,35.92
2019-02-17T10:01:11.292Z,29.72
2019-02-17T10:03:40.176Z,33.10
2019-02-17T10:06:08.964Z,34.85
2019-02-17T10:08:37.677Z,30.45
2019-02-17T10:11:06.373Z,32.17
2019-02-17T10:13:34.991Z,37.28
2019-02-17T10:16:03.672Z,34.43
2019-02-17T10:18:32.320Z,33.55
2019-02-17T10:21:00.943Z,35.10
2019-02-17T10:23:29.591Z,31.65
2019-02-17T10:25:58.210Z,29.23
2019-02-17T10:28:26.866Z,30.17
2019-02-17T10:30:55.755Z,31.48
2019-02-17T10:33:24.616Z,29.80
2019-02-17T10:35:53.324Z,30.00
2019-02-17T10:38:22.421Z,33.28
2019-02-17T10:40:50.982Z,30.30
2019-02-17T10:43:19.618Z,31.25
2019-02-17T10:45:48.375Z,33.15
2019-02-17T10:48:17.127Z,36.35
2019-02-17T10:50:46.004Z,30.12
2019-02-17T10:53:14.649Z,33.10
2019-02-17T10:55:43.394Z,30.62
2019-02-17T10:58:12.367Z,33.90
2019-02-17T11:00:41.672Z,33.20
2019-02-17T11:03:10.403Z,30.05
2019-02-17T11:05:39.214Z,32.67
2019-02-17T11:08:08.119Z,31.77
2019-02-17T11:10:36.866Z,34.85
2019-02-17T11:13:05.523Z,36.38
2019-02-17T11:15:34.205Z,31.90
2019-02-17T11:18:02.891Z,30.72
2019-02-17T11:20:31.600Z,33.92
2019-02-17T11:23:00.511Z,31.15
2019-02-17T11:25:29.135Z,32.17
2019-02-17T11:27:57.777Z,30.25
2019-02-17T11:30:26.391Z,30.48
2019-02-17T11:32:58.064Z,27.80
2019-02-17T11:35:25.364Z,26.87
2019-02-17T11:37:54.182Z,24.67
2019-02-17T11:40:23.084Z,23.73
2019-02-17T11:42:51.701Z,25.80
2019-02-17T11:45:20.660Z,31.73
2019-02-17T11:47:49.380Z,24.63
2019-02-17T11:50:18.028Z,25.68
2019-02-17T11:52:46.642Z,27.77
2019-02-17T11:55:16.768Z,27.70
2019-02-17T11:57:45.377Z,23.87
2019-02-17T12:00:19.471Z,24.52
2019-02-17T12:02:48.192Z,24.77
2019-02-17T12:05:16.793Z,23.27
2019-02-17T12:07:45.924Z,26.27
2019-02-17T12:10:14.718Z,24.55
2019-02-17T12:12:43.384Z,25.00
2019-02-17T12:15:13.789Z,25.90
2019-02-17T12:17:42.410Z,24.90
2019-02-17T12:20:32.533Z,26.73
2019-02-17T12:23:03.002Z,29.10
2019-02-17T12:25:33.254Z,26.90
2019-02-17T12:28:03.572Z,27.07
2019-02-17T12:30:32.271Z,26.97
2019-02-17T12:33:00.960Z,22.55
2019-02-17T12:35:29.609Z,24.57
2019-02-17T12:37:58.177Z,27.87
2019-02-17T12:40:26.839Z,27.48
2019-02-17T12:42:55.538Z,28.07
2019-02-17T12:45:24.180Z,26.93
2019-02-17T12:47:58.191Z,27.55
2019-02-17T12:50:23.338Z,26.40
2019-02-17T12:52:52.330Z,27.67
2019-02-17T12:55:20.982Z,23.95
2019-02-17T12:57:49.608Z,24.18
2019-02-17T13:00:18.651Z,26.00
2019-02-17T13:02:47.532Z,28.43
2019-02-17T13:05:16.165Z,26.02
2019-02-17T13:07:45.112Z,24.47
2019-02-17T13:10:13.757Z,24.40
2019-02-17T13:12:42.459Z,22.80
2019-02-17T13:15:13.001Z,22.00
2019-02-17T13:17:41.747Z,23.40
2019-02-17T13:20:12.284Z,21.50
2019-02-17T13:22:40.978Z,29.50
2019-02-17T13:25:12.242Z,30.10
2019-02-17T13:27:40.935Z,26.57
2019-02-17T13:30:15.497Z,25.70
2019-02-17T13:32:44.248Z,22.95
2019-02-17T13:35:13.067Z,21.60
2019-02-17T13:37:41.712Z,26.12
2019-02-17T13:40:12.659Z,22.37
2019-02-17T13:42:41.337Z,26.85
2019-02-17T13:45:12.728Z,21.30
2019-02-17T13:47:41.410Z,24.55
2019-02-17T13:50:12.313Z,22.82
2019-02-17T13:52:42.495Z,22.02
2019-02-17T13:55:11.633Z,24.60
2019-02-17T13:57:41.948Z,27.35
2019-02-17T14:00:16.280Z,22.20
2019-02-17T14:02:45.032Z,20.80
2019-02-17T14:05:13.954Z,23.95
2019-02-17T14:07:42.645Z,21.35
2019-02-17T14:10:12.794Z,24.87
2019-02-17T14:12:41.708Z,35.55
2019-02-17T14:15:16.261Z,55.70
2019-02-17T14:17:44.879Z,36.35
2019-02-17T14:20:13.607Z,29.98
2019-02-17T14:22:42.428Z,21.10
2019-02-17T14:25:11.632Z,19.40
2019-02-17T14:27:40.351Z,26.73
2019-02-17T14:30:17.268Z,22.60
2019-02-17T14:32:46.066Z,24.63
2019-02-17T14:35:14.845Z,20.17
2019-02-17T14:37:43.556Z,23.98
2019-02-17T14:40:13.413Z,21.55
2019-02-17T14:42:42.053Z,20.45
2019-02-17T14:45:14.811Z,22.10
2019-02-17T14:47:43.424Z,24.47
2019-02-17T14:50:12.382Z,20.40
2019-02-17T14:52:41.032Z,19.27
2019-02-17T14:55:13.179Z,23.20
2019-02-17T14:57:42.163Z,20.27
2019-02-17T15:00:15.835Z,19.60
2019-02-17T15:02:44.451Z,17.90
2019-02-17T15:05:12.730Z,21.00
2019-02-17T15:07:41.495Z,20.82
2019-02-17T15:10:16.716Z,20.63
2019-02-17T15:12:45.301Z,20.27
2019-02-17T15:15:16.101Z,21.97
2019-02-17T15:17:44.817Z,19.05
2019-02-17T15:20:21.664Z,19.03
2019-02-17T15:22:50.329Z,18.98
2019-02-17T15:25:19.058Z,18.03
2019-02-17T15:27:48.016Z,18.85
2019-02-17T15:30:18.090Z,18.43
2019-02-17T15:32:46.864Z,19.80
2019-02-17T15:35:15.648Z,19.82
2019-02-17T15:37:44.275Z,22.45
2019-02-17T15:40:14.355Z,19.20
2019-02-17T15:42:43.477Z,19.35
2019-02-17T15:45:13.675Z,18.03
2019-02-17T15:47:42.332Z,16.77
2019-02-17T15:50:12.857Z,15.50
2019-02-17T15:52:41.554Z,16.67
2019-02-17T15:55:14.769Z,17.67
2019-02-17T15:57:43.625Z,15.30
2019-02-17T16:00:14.369Z,13.87
2019-02-17T16:02:43.112Z,16.48
2019-02-17T16:05:12.064Z,16.50
2019-02-17T16:07:40.746Z,49.23
2019-02-17T16:10:11.262Z,18.17
2019-02-17T16:12:40.026Z,35.83
2019-02-17T16:15:11.591Z,43.58
2019-02-17T16:17:40.212Z,28.23
2019-02-17T16:20:11.729Z,23.53
2019-02-17T16:22:40.376Z,27.50
2019-02-17T16:25:10.184Z,20.65
2019-02-17T16:27:38.818Z,21.15
2019-02-17T16:30:19.512Z,21.97
2019-02-17T16:32:48.129Z,17.02
2019-02-17T16:35:17.215Z,20.80
2019-02-17T16:37:45.942Z,17.00
2019-02-17T16:40:15.920Z,23.80
2019-02-17T16:42:44.719Z,27.67
2019-02-17T16:45:14.282Z,25.87
2019-02-17T16:47:44.642Z,23.52
2019-02-17T16:50:25.405Z,21.48
2019-02-17T16:52:54.267Z,24.10
2019-02-17T16:55:22.882Z,22.70
2019-02-17T16:57:51.536Z,23.25
2019-02-17T17:00:25.090Z,19.80
2019-02-17T17:02:54.542Z,19.00
2019-02-17T17:05:24.058Z,18.95
2019-02-17T17:07:52.979Z,19.25
2019-02-17T17:10:22.021Z,20.65
2019-02-17T17:12:50.722Z,21.95
2019-02-17T17:15:19.477Z,19.17
2019-02-17T17:17:48.197Z,19.05
2019-02-17T17:20:21.832Z,22.15
2019-02-17T17:22:50.515Z,22.00
2019-02-17T17:25:19.666Z,21.02
2019-02-17T17:27:48.404Z,21.97
2019-02-17T17:30:20.549Z,18.37
2019-02-17T17:32:49.496Z,22.75
2019-02-17T17:35:18.350Z,18.10
2019-02-17T17:37:46.992Z,18.37
2019-02-17T17:40:17.807Z,18.05
2019-02-17T17:42:46.448Z,19.57
2019-02-17T17:45:22.240Z,17.42
2019-02-17T17:47:50.927Z,16.00
2019-02-17T17:50:19.542Z,17.98
2019-02-17T17:52:48.274Z,15.38
2019-02-17T17:55:16.935Z,17.25
2019-02-17T17:57:45.637Z,16.15
2019-02-17T18:00:23.907Z,17.98
2019-02-17T18:02:52.522Z,19.57
2019-02-17T18:05:21.313Z,23.32
2019-02-17T18:07:50.132Z,22.52
2019-02-17T18:10:18.895Z,29.48
2019-02-17T18:12:47.653Z,19.73
2019-02-17T18:15:18.169Z,18.75
2019-02-17T18:17:54.015Z,17.02
2019-02-17T18:20:17.257Z,16.67
2019-02-17T18:22:45.867Z,15.98
2019-02-17T18:25:15.166Z,14.03
2019-02-17T18:27:43.881Z,17.30
2019-02-17T18:30:18.202Z,18.23
2019-02-17T18:32:47.129Z,16.50
2019-02-17T18:35:20.380Z,13.63
2019-02-17T18:37:46.442Z,14.33
2019-02-17T18:40:16.732Z,15.15
2019-02-17T18:42:45.377Z,13.35
2019-02-17T18:45:15.126Z,18.70
2019-02-17T18:47:43.852Z,16.67
2019-02-17T18:50:20.041Z,18.65
2019-02-17T18:52:49.822Z,17.42
2019-02-17T18:55:19.155Z,17.42
2019-02-17T18:57:50.839Z,19.23
2019-02-17T19:00:27.900Z,14.90
2019-02-17T19:02:56.507Z,14.63
2019-02-17T19:05:31.866Z,13.90
2019-02-17T19:07:55.515Z,14.47
2019-02-17T19:10:24.223Z,13.15
2019-02-17T19:12:52.827Z,15.10
2019-02-17T19:15:22.304Z,14.35
2019-02-17T19:17:50.949Z,15.50
2019-02-17T19:20:28.644Z,15.83
2019-02-17T19:22:57.488Z,14.18
2019-02-17T19:25:26.152Z,16.50
2019-02-17T19:27:54.833Z,15.30
2019-02-17T19:30:23.568Z,15.88
2019-02-17T19:32:53.883Z,14.90
2019-02-17T19:35:22.645Z,19.95
2019-02-17T19:37:51.662Z,18.67
2019-02-17T19:40:20.423Z,16.32
2019-02-17T19:42:49.041Z,16.75
2019-02-17T19:45:20.656Z,15.45
2019-02-17T19:47:49.376Z,14.25
2019-02-17T19:50:18.144Z,16.10
2019-02-17T19:52:47.048Z,16.15
2019-02-17T19:55:16.005Z,17.25
2019-02-17T19:57:44.677Z,17.50
2019-02-17T20:00:15.815Z,13.67
2019-02-17T20:02:52.067Z,13.35
2019-02-17T20:05:22.301Z,14.17
2019-02-17T20:07:52.797Z,16.70
2019-02-17T20:10:21.444Z,15.20
2019-02-17T20:12:50.279Z,20.20
2019-02-17T20:15:19.723Z,14.20
2019-02-17T20:17:48.350Z,16.70
2019-02-17T20:20:16.977Z,16.02
2019-02-17T20:22:45.619Z,17.80
2019-02-17T20:25:14.238Z,16.47
2019-02-17T20:27:42.852Z,15.68
2019-02-17T20:30:13.650Z,16.62
2019-02-17T20:32:42.260Z,16.50
2019-02-17T20:35:10.898Z,15.23
2019-02-17T20:37:39.545Z,17.90
2019-02-17T20:40:13.003Z,16.40
2019-02-17T20:42:41.665Z,15.77
2019-02-17T20:45:11.883Z,20.12
2019-02-17T20:47:40.595Z,14.28
2019-02-17T20:50:14.104Z,15.43
2019-02-17T20:52:42.875Z,16.87
2019-02-17T20:55:12.517Z,16.52
2019-02-17T20:57:41.130Z,20.17
2019-02-17T21:00:11.840Z,16.20
2019-02-17T21:02:42.099Z,17.42
2019-02-17T21:05:11.391Z,18.20
2019-02-17T21:07:40.253Z,18.35
2019-02-17T21:10:13.277Z,17.12
2019-02-17T21:12:42.201Z,16.77
2019-02-17T21:15:12.287Z,17.67
2019-02-17T21:17:43.945Z,15.20
2019-02-17T21:20:13.249Z,18.62
2019-02-17T21:22:41.903Z,15.90
2019-02-17T21:25:11.915Z,17.00
2019-02-17T21:27:40.698Z,15.32
2019-02-17T21:30:20.417Z,18.42
2019-02-17T21:32:49.437Z,16.44
2019-02-17T21:35:18.191Z,21.07
2019-02-17T21:37:46.853Z,15.13
2019-02-17T21:40:15.528Z,15.23
2019-02-17T21:42:44.177Z,15.95
2019-02-17T21:45:14.745Z,15.25
2019-02-17T21:47:43.390Z,15.95
2019-02-17T21:50:13.000Z,14.33
2019-02-17T21:52:44.335Z,15.20
2019-02-17T21:55:14.408Z,14.67
2019-02-17T21:57:43.222Z,13.13
2019-02-17T22:00:16.418Z,15.95
2019-02-17T22:02:45.073Z,16.95
2019-02-17T22:05:13.763Z,20.35
2019-02-17T22:07:45.365Z,15.58
2019-02-17T22:10:16.654Z,15.85
2019-02-17T22:12:45.309Z,15.25
2019-02-17T22:15:24.063Z,17.02
2019-02-17T22:17:52.684Z,16.02
2019-02-17T22:20:21.330Z,15.60
2019-02-17T22:22:50.149Z,17.17
2019-02-17T22:25:19.040Z,15.15
2019-02-17T22:27:47.805Z,13.55
2019-02-17T22:30:16.610Z,16.32
2019-02-17T22:32:45.247Z,13.95
2019-02-17T22:35:13.951Z,16.27
2019-02-17T22:37:42.679Z,15.53
2019-02-17T22:40:13.737Z,14.68
2019-02-17T22:42:42.470Z,17.10
2019-02-17T22:45:12.439Z,13.70
2019-02-17T22:47:41.042Z,16.10
2019-02-17T22:50:14.569Z,16.37
2019-02-17T22:52:44.333Z,16.50
2019-02-17T22:55:13.848Z,16.27
2019-02-17T22:57:42.571Z,14.63
2019-02-17T23:00:45.830Z,16.00
2019-02-17T23:03:14.688Z,15.32
2019-02-17T23:05:43.443Z,17.23
2019-02-17T23:08:12.340Z,13.65
2019-02-17T23:10:41.110Z,16.37
2019-02-17T23:13:09.839Z,14.55
2019-02-17T23:15:38.455Z,14.40
2019-02-17T23:18:07.084Z,13.85
2019-02-17T23:20:35.712Z,12.95
2019-02-17T23:23:04.345Z,16.00
2019-02-17T23:25:32.951Z,15.07
2019-02-17T23:28:01.629Z,12.20
2019-02-17T23:30:30.234Z,16.80
2019-02-17T23:32:58.850Z,13.63
2019-02-17T23:35:27.501Z,18.07
2019-02-17T23:37:56.155Z,15.75
2019-02-17T23:40:24.828Z,15.45
2019-02-17T23:42:53.428Z,14.53
2019-02-17T23:45:22.078Z,15.38
2019-02-17T23:47:50.724Z,16.42
2019-02-17T23:50:19.341Z,16.40
2019-02-17T23:52:48.271Z,19.35
2019-02-17T23:55:16.993Z,14.95
2019-02-17T23:57:45.600Z,15.85
